sensor_id;sensor_type;location;lat;lon;timestamp;P1;P2;P0
49434;PMS5003;35306;53.458;-1.990;2022-07-25T00:02:23;4;4;
49434;PMS5003;35306;53.458;-1.990;2022-07-25T00:04:51;6;3;
49434;PMS5003;35306;53.458;-1.990;2022-07-25T00:07:18;8;4;
49434;PMS5003;35306;53.458;-1.990;2022-07-25T00:09:46;3;3;
49434;PMS5003;35306;53.458;-1.990;2022-07-25T00:12:15;4;4;
49434;PMS5003;35306;53.458;-1.990;2022-07-25T00:14:42;4;4;
49434;PMS5003;35306;53.458;-1.990;2022-07-25T00:17:10;4;4;
49434;PMS5003;35306;53.458;-1.990;2022-07-25T00:19:38;4;4;
49434;PMS5003;35306;53.458;-1.990;2022-07-25T00:22:05;4;3;
49434;PMS5003;35306;53.458;-1.990;2022-07-25T00:24:33;1;1;
49434;PMS5003;35306;53.458;-1.990;2022-07-25T00:27:00;5;5;
49434;PMS5003;35306;53.458;-1.990;2022-07-25T00:29:28;4;4;
49434;PMS5003;35306;53.458;-1.990;2022-07-25T00:31:56;5;4;
49434;PMS5003;35306;53.458;-1.990;2022-07-25T00:34:23;4;4;
49434;PMS5003;35306;53.458;-1.990;2022-07-25T00:36:50;5;5;
49434;PMS5003;35306;53.458;-1.990;2022-07-25T00:39:18;5;4;
49434;PMS5003;35306;53.458;-1.990;2022-07-25T00:41:45;5;5;
49434;PMS5003;35306;53.458;-1.990;2022-07-25T00:44:21;3;3;
49434;PMS5003;35306;53.458;-1.990;2022-07-25T00:46:49;5;4;
49434;PMS5003;35306;53.458;-1.990;2022-07-25T00:49:17;3;3;
49434;PMS5003;35306;53.458;-1.990;2022-07-25T00:51:44;6;6;
49434;PMS5003;35306;53.458;-1.990;2022-07-25T00:54:11;5;5;
49434;PMS5003;35306;53.458;-1.990;2022-07-25T00:56:41;3;3;
49434;PMS5003;35306;53.458;-1.990;2022-07-25T00:59:09;10;8;
49434;PMS5003;35306;53.458;-1.990;2022-07-25T01:01:37;4;3;
49434;PMS5003;35306;53.458;-1.990;2022-07-25T01:04:05;6;6;
49434;PMS5003;35306;53.458;-1.990;2022-07-25T01:06:33;4;3;
49434;PMS5003;35306;53.458;-1.990;2022-07-25T01:09:02;4;3;
49434;PMS5003;35306;53.458;-1.990;2022-07-25T01:11:30;4;4;
49434;PMS5003;35306;53.458;-1.990;2022-07-25T01:13:57;5;5;
49434;PMS5003;35306;53.458;-1.990;2022-07-25T01:16:25;5;3;
49434;PMS5003;35306;53.458;-1.990;2022-07-25T01:18:53;4;4;
49434;PMS5003;35306;53.458;-1.990;2022-07-25T01:21:21;4;4;
49434;PMS5003;35306;53.458;-1.990;2022-07-25T01:23:49;3;3;
49434;PMS5003;35306;53.458;-1.990;2022-07-25T01:26:17;6;4;
49434;PMS5003;35306;53.458;-1.990;2022-07-25T01:28:45;4;4;
49434;PMS5003;35306;53.458;-1.990;2022-07-25T01:31:12;3;3;
49434;PMS5003;35306;53.458;-1.990;2022-07-25T01:33:42;2;2;
49434;PMS5003;35306;53.458;-1.990;2022-07-25T01:36:09;3;2;
49434;PMS5003;35306;53.458;-1.990;2022-07-25T01:38:37;2;2;
49434;PMS5003;35306;53.458;-1.990;2022-07-25T01:41:05;8;6;
49434;PMS5003;35306;53.458;-1.990;2022-07-25T01:43:32;5;4;
49434;PMS5003;35306;53.458;-1.990;2022-07-25T01:46:00;7;7;
49434;PMS5003;35306;53.458;-1.990;2022-07-25T01:48:28;5;5;
49434;PMS5003;35306;53.458;-1.990;2022-07-25T01:50:55;6;4;
49434;PMS5003;35306;53.458;-1.990;2022-07-25T01:53:23;4;4;
49434;PMS5003;35306;53.458;-1.990;2022-07-25T01:55:50;4;3;
49434;PMS5003;35306;53.458;-1.990;2022-07-25T01:58:18;6;5;
49434;PMS5003;35306;53.458;-1.990;2022-07-25T02:00:45;5;5;
49434;PMS5003;35306;53.458;-1.990;2022-07-25T02:03:15;4;3;
49434;PMS5003;35306;53.458;-1.990;2022-07-25T02:05:43;2;2;
49434;PMS5003;35306;53.458;-1.990;2022-07-25T02:08:10;4;4;
49434;PMS5003;35306;53.458;-1.990;2022-07-25T02:10:37;2;2;
49434;PMS5003;35306;53.458;-1.990;2022-07-25T02:13:05;2;2;
49434;PMS5003;35306;53.458;-1.990;2022-07-25T02:15:32;3;3;
49434;PMS5003;35306;53.458;-1.990;2022-07-25T02:18:01;5;5;
49434;PMS5003;35306;53.458;-1.990;2022-07-25T02:20:28;5;3;
49434;PMS5003;35306;53.458;-1.990;2022-07-25T02:22:56;5;5;
49434;PMS5003;35306;53.458;-1.990;2022-07-25T02:25:23;4;4;
49434;PMS5003;35306;53.458;-1.990;2022-07-25T02:27:51;6;3;
49434;PMS5003;35306;53.458;-1.990;2022-07-25T02:39:34;4;3;
49434;PMS5003;35306;53.458;-1.990;2022-07-25T02:42:01;2;1;
49434;PMS5003;35306;53.458;-1.990;2022-07-25T02:44:28;5;3;
49434;PMS5003;35306;53.458;-1.990;2022-07-25T02:46:55;2;2;
49434;PMS5003;35306;53.458;-1.990;2022-07-25T02:49:23;3;3;
49434;PMS5003;35306;53.458;-1.990;2022-07-25T02:51:50;4;3;
49434;PMS5003;35306;53.458;-1.990;2022-07-25T02:54:18;5;5;
49434;PMS5003;35306;53.458;-1.990;2022-07-25T02:56:45;3;3;
49434;PMS5003;35306;53.458;-1.990;2022-07-25T02:59:12;4;4;
49434;PMS5003;35306;53.458;-1.990;2022-07-25T03:01:41;5;3;
49434;PMS5003;35306;53.458;-1.990;2022-07-25T03:04:09;3;1;
49434;PMS5003;35306;53.458;-1.990;2022-07-25T03:06:37;1;1;
49434;PMS5003;35306;53.458;-1.990;2022-07-25T03:09:04;4;4;
49434;PMS5003;35306;53.458;-1.990;2022-07-25T03:11:32;3;3;
49434;PMS5003;35306;53.458;-1.990;2022-07-25T03:13:59;5;5;
49434;PMS5003;35306;53.458;-1.990;2022-07-25T03:16:27;4;3;
49434;PMS5003;35306;53.458;-1.990;2022-07-25T03:18:54;9;6;
49434;PMS5003;35306;53.458;-1.990;2022-07-25T03:21:22;4;3;
49434;PMS5003;35306;53.458;-1.990;2022-07-25T03:23:50;3;3;
49434;PMS5003;35306;53.458;-1.990;2022-07-25T03:26:17;4;3;
49434;PMS5003;35306;53.458;-1.990;2022-07-25T03:28:45;6;4;
49434;PMS5003;35306;53.458;-1.990;2022-07-25T03:31:12;4;3;
49434;PMS5003;35306;53.458;-1.990;2022-07-25T03:33:41;5;4;
49434;PMS5003;35306;53.458;-1.990;2022-07-25T03:36:08;3;3;
49434;PMS5003;35306;53.458;-1.990;2022-07-25T03:38:36;2;2;
49434;PMS5003;35306;53.458;-1.990;2022-07-25T03:41:04;3;2;
49434;PMS5003;35306;53.458;-1.990;2022-07-25T03:43:31;3;3;
49434;PMS5003;35306;53.458;-1.990;2022-07-25T03:45:59;3;3;
49434;PMS5003;35306;53.458;-1.990;2022-07-25T03:48:26;3;3;
49434;PMS5003;35306;53.458;-1.990;2022-07-25T03:50:54;4;3;
49434;PMS5003;35306;53.458;-1.990;2022-07-25T03:53:34;2;2;
49434;PMS5003;35306;53.458;-1.990;2022-07-25T03:56:02;3;3;
49434;PMS5003;35306;53.458;-1.990;2022-07-25T03:58:30;4;4;
49434;PMS5003;35306;53.458;-1.990;2022-07-25T04:00:57;2;2;
49434;PMS5003;35306;53.458;-1.990;2022-07-25T04:03:25;6;4;
49434;PMS5003;35306;53.458;-1.990;2022-07-25T04:05:52;3;3;
49434;PMS5003;35306;53.458;-1.990;2022-07-25T04:08:20;3;3;
49434;PMS5003;35306;53.458;-1.990;2022-07-25T04:10:48;1;1;
49434;PMS5003;35306;53.458;-1.990;2022-07-25T04:13:16;5;3;
49434;PMS5003;35306;53.458;-1.990;2022-07-25T04:15:43;3;2;
49434;PMS5003;35306;53.458;-1.990;2022-07-25T04:25:57;3;2;
49434;PMS5003;35306;53.458;-1.990;2022-07-25T04:28:23;4;4;
49434;PMS5003;35306;53.458;-1.990;2022-07-25T04:30:52;1;1;
49434;PMS5003;35306;53.458;-1.990;2022-07-25T04:33:20;2;2;
49434;PMS5003;35306;53.458;-1.990;2022-07-25T04:35:48;2;2;
49434;PMS5003;35306;53.458;-1.990;2022-07-25T04:38:15;3;3;
49434;PMS5003;35306;53.458;-1.990;2022-07-25T04:48:52;3;1;
49434;PMS5003;35306;53.458;-1.990;2022-07-25T04:51:19;1;1;
49434;PMS5003;35306;53.458;-1.990;2022-07-25T04:53:46;1;1;
49434;PMS5003;35306;53.458;-1.990;2022-07-25T04:56:19;2;2;
49434;PMS5003;35306;53.458;-1.990;2022-07-25T04:58:46;3;2;
49434;PMS5003;35306;53.458;-1.990;2022-07-25T05:01:14;2;2;
49434;PMS5003;35306;53.458;-1.990;2022-07-25T05:03:41;2;2;
49434;PMS5003;35306;53.458;-1.990;2022-07-25T05:06:09;1;1;
49434;PMS5003;35306;53.458;-1.990;2022-07-25T05:08:37;1;1;
49434;PMS5003;35306;53.458;-1.990;2022-07-25T05:11:04;1;1;
49434;PMS5003;35306;53.458;-1.990;2022-07-25T05:13:32;2;2;
49434;PMS5003;35306;53.458;-1.990;2022-07-25T05:15:59;1;1;
49434;PMS5003;35306;53.458;-1.990;2022-07-25T05:18:27;4;2;
49434;PMS5003;35306;53.458;-1.990;2022-07-25T05:20:55;1;1;
49434;PMS5003;35306;53.458;-1.990;2022-07-25T05:23:22;3;3;
49434;PMS5003;35306;53.458;-1.990;2022-07-25T05:25:50;2;0;
49434;PMS5003;35306;53.458;-1.990;2022-07-25T05:28:17;1;1;
49434;PMS5003;35306;53.458;-1.990;2022-07-25T05:30:45;2;2;
49434;PMS5003;35306;53.458;-1.990;2022-07-25T05:33:12;5;5;
49434;PMS5003;35306;53.458;-1.990;2022-07-25T05:35:41;4;1;
49434;PMS5003;35306;53.458;-1.990;2022-07-25T05:38:09;1;1;
49434;PMS5003;35306;53.458;-1.990;2022-07-25T05:40:36;2;2;
49434;PMS5003;35306;53.458;-1.990;2022-07-25T05:43:03;2;2;
49434;PMS5003;35306;53.458;-1.990;2022-07-25T05:45:31;5;3;
49434;PMS5003;35306;53.458;-1.990;2022-07-25T05:47:59;7;7;
49434;PMS5003;35306;53.458;-1.990;2022-07-25T05:50:26;0;0;
49434;PMS5003;35306;53.458;-1.990;2022-07-25T05:52:54;2;2;
49434;PMS5003;35306;53.458;-1.990;2022-07-25T05:55:21;1;1;
49434;PMS5003;35306;53.458;-1.990;2022-07-25T05:57:49;1;1;
49434;PMS5003;35306;53.458;-1.990;2022-07-25T06:00:17;2;2;
49434;PMS5003;35306;53.458;-1.990;2022-07-25T06:02:44;1;1;
49434;PMS5003;35306;53.458;-1.990;2022-07-25T06:05:12;1;1;
49434;PMS5003;35306;53.458;-1.990;2022-07-25T06:07:39;1;1;
49434;PMS5003;35306;53.458;-1.990;2022-07-25T06:10:08;2;2;
49434;PMS5003;35306;53.458;-1.990;2022-07-25T06:12:36;1;1;
49434;PMS5003;35306;53.458;-1.990;2022-07-25T06:15:04;1;1;
49434;PMS5003;35306;53.458;-1.990;2022-07-25T06:17:32;2;1;
49434;PMS5003;35306;53.458;-1.990;2022-07-25T06:19:59;0;0;
49434;PMS5003;35306;53.458;-1.990;2022-07-25T06:22:28;0;0;
49434;PMS5003;35306;53.458;-1.990;2022-07-25T06:24:55;2;2;
49434;PMS5003;35306;53.458;-1.990;2022-07-25T06:27:23;2;2;
49434;PMS5003;35306;53.458;-1.990;2022-07-25T06:29:50;2;2;
49434;PMS5003;35306;53.458;-1.990;2022-07-25T06:32:18;2;2;
49434;PMS5003;35306;53.458;-1.990;2022-07-25T06:34:45;2;2;
49434;PMS5003;35306;53.458;-1.990;2022-07-25T06:37:13;2;1;
49434;PMS5003;35306;53.458;-1.990;2022-07-25T06:39:46;0;0;
49434;PMS5003;35306;53.458;-1.990;2022-07-25T06:42:14;4;3;
49434;PMS5003;35306;53.458;-1.990;2022-07-25T06:44:42;3;3;
49434;PMS5003;35306;53.458;-1.990;2022-07-25T06:47:10;2;2;
49434;PMS5003;35306;53.458;-1.990;2022-07-25T06:49:39;2;2;
49434;PMS5003;35306;53.458;-1.990;2022-07-25T06:52:07;4;4;
49434;PMS5003;35306;53.458;-1.990;2022-07-25T06:54:35;3;3;
49434;PMS5003;35306;53.458;-1.990;2022-07-25T06:57:03;2;2;
49434;PMS5003;35306;53.458;-1.990;2022-07-25T06:59:30;2;2;
49434;PMS5003;35306;53.458;-1.990;2022-07-25T07:01:58;3;1;
49434;PMS5003;35306;53.458;-1.990;2022-07-25T07:04:25;5;5;
49434;PMS5003;35306;53.458;-1.990;2022-07-25T07:06:53;5;5;
49434;PMS5003;35306;53.458;-1.990;2022-07-25T07:09:20;4;4;
49434;PMS5003;35306;53.458;-1.990;2022-07-25T07:11:48;5;5;
49434;PMS5003;35306;53.458;-1.990;2022-07-25T07:14:16;3;3;
49434;PMS5003;35306;53.458;-1.990;2022-07-25T07:16:43;5;5;
49434;PMS5003;35306;53.458;-1.990;2022-07-25T07:19:11;5;5;
49434;PMS5003;35306;53.458;-1.990;2022-07-25T07:21:38;5;4;
49434;PMS5003;35306;53.458;-1.990;2022-07-25T07:24:06;4;4;
49434;PMS5003;35306;53.458;-1.990;2022-07-25T07:26:34;9;6;
49434;PMS5003;35306;53.458;-1.990;2022-07-25T07:29:02;5;5;
49434;PMS5003;35306;53.458;-1.990;2022-07-25T07:31:29;9;6;
49434;PMS5003;35306;53.458;-1.990;2022-07-25T07:33:57;6;6;
49434;PMS5003;35306;53.458;-1.990;2022-07-25T07:36:24;10;10;
49434;PMS5003;35306;53.458;-1.990;2022-07-25T07:38:52;11;7;
49434;PMS5003;35306;53.458;-1.990;2022-07-25T07:41:20;11;7;
49434;PMS5003;35306;53.458;-1.990;2022-07-25T07:43:47;8;8;
49434;PMS5003;35306;53.458;-1.990;2022-07-25T07:46:15;8;8;
49434;PMS5003;35306;53.458;-1.990;2022-07-25T07:48:42;9;8;
49434;PMS5003;35306;53.458;-1.990;2022-07-25T07:51:10;6;6;
49434;PMS5003;35306;53.458;-1.990;2022-07-25T07:53:37;12;12;
49434;PMS5003;35306;53.458;-1.990;2022-07-25T07:56:05;11;8;
49434;PMS5003;35306;53.458;-1.990;2022-07-25T07:58:32;8;7;
49434;PMS5003;35306;53.458;-1.990;2022-07-25T08:01:00;8;8;
49434;PMS5003;35306;53.458;-1.990;2022-07-25T08:03:27;9;9;
49434;PMS5003;35306;53.458;-1.990;2022-07-25T08:05:55;11;8;
49434;PMS5003;35306;53.458;-1.990;2022-07-25T08:08:23;7;6;
49434;PMS5003;35306;53.458;-1.990;2022-07-25T08:10:50;9;8;
49434;PMS5003;35306;53.458;-1.990;2022-07-25T08:13:18;8;8;
49434;PMS5003;35306;53.458;-1.990;2022-07-25T08:15:47;9;7;
49434;PMS5003;35306;53.458;-1.990;2022-07-25T08:18:16;7;7;
49434;PMS5003;35306;53.458;-1.990;2022-07-25T08:20:44;7;7;
49434;PMS5003;35306;53.458;-1.990;2022-07-25T08:23:12;9;7;
49434;PMS5003;35306;53.458;-1.990;2022-07-25T08:25:41;5;4;
49434;PMS5003;35306;53.458;-1.990;2022-07-25T08:28:10;7;7;
49434;PMS5003;35306;53.458;-1.990;2022-07-25T08:30:38;9;7;
49434;PMS5003;35306;53.458;-1.990;2022-07-25T08:33:07;9;8;
49434;PMS5003;35306;53.458;-1.990;2022-07-25T08:35:36;6;6;
49434;PMS5003;35306;53.458;-1.990;2022-07-25T08:38:03;8;8;
49434;PMS5003;35306;53.458;-1.990;2022-07-25T08:40:32;8;7;
49434;PMS5003;35306;53.458;-1.990;2022-07-25T08:42:59;12;8;
49434;PMS5003;35306;53.458;-1.990;2022-07-25T08:45:27;9;9;
49434;PMS5003;35306;53.458;-1.990;2022-07-25T08:47:55;6;6;
49434;PMS5003;35306;53.458;-1.990;2022-07-25T08:50:23;6;6;
49434;PMS5003;35306;53.458;-1.990;2022-07-25T08:52:52;7;7;
49434;PMS5003;35306;53.458;-1.990;2022-07-25T08:55:23;7;7;
49434;PMS5003;35306;53.458;-1.990;2022-07-25T08:57:52;6;6;
49434;PMS5003;35306;53.458;-1.990;2022-07-25T09:00:20;8;7;
49434;PMS5003;35306;53.458;-1.990;2022-07-25T09:02:50;6;6;
49434;PMS5003;35306;53.458;-1.990;2022-07-25T09:05:20;6;6;
49434;PMS5003;35306;53.458;-1.990;2022-07-25T09:07:49;8;7;
49434;PMS5003;35306;53.458;-1.990;2022-07-25T09:10:18;4;4;
49434;PMS5003;35306;53.458;-1.990;2022-07-25T09:12:51;6;6;
49434;PMS5003;35306;53.458;-1.990;2022-07-25T09:15:28;6;5;
49434;PMS5003;35306;53.458;-1.990;2022-07-25T09:17:57;5;5;
49434;PMS5003;35306;53.458;-1.990;2022-07-25T09:20:36;7;5;
49434;PMS5003;35306;53.458;-1.990;2022-07-25T09:23:05;7;5;
49434;PMS5003;35306;53.458;-1.990;2022-07-25T09:25:34;9;7;
49434;PMS5003;35306;53.458;-1.990;2022-07-25T09:28:18;4;4;
49434;PMS5003;35306;53.458;-1.990;2022-07-25T09:30:53;5;5;
49434;PMS5003;35306;53.458;-1.990;2022-07-25T09:33:22;5;5;
49434;PMS5003;35306;53.458;-1.990;2022-07-25T09:35:51;6;6;
49434;PMS5003;35306;53.458;-1.990;2022-07-25T09:38:20;8;7;
49434;PMS5003;35306;53.458;-1.990;2022-07-25T09:40:56;4;4;
49434;PMS5003;35306;53.458;-1.990;2022-07-25T09:43:34;4;4;
49434;PMS5003;35306;53.458;-1.990;2022-07-25T09:46:02;3;3;
49434;PMS5003;35306;53.458;-1.990;2022-07-25T09:48:30;5;5;
49434;PMS5003;35306;53.458;-1.990;2022-07-25T09:50:58;4;4;
49434;PMS5003;35306;53.458;-1.990;2022-07-25T09:53:26;6;5;
49434;PMS5003;35306;53.458;-1.990;2022-07-25T09:55:53;3;3;
49434;PMS5003;35306;53.458;-1.990;2022-07-25T09:58:21;3;3;
49434;PMS5003;35306;53.458;-1.990;2022-07-25T10:00:49;3;3;
49434;PMS5003;35306;53.458;-1.990;2022-07-25T10:03:21;5;4;
49434;PMS5003;35306;53.458;-1.990;2022-07-25T10:06:01;3;2;
49434;PMS5003;35306;53.458;-1.990;2022-07-25T10:08:38;3;3;
49434;PMS5003;35306;53.458;-1.990;2022-07-25T10:11:17;10;8;
49434;PMS5003;35306;53.458;-1.990;2022-07-25T10:13:45;5;4;
49434;PMS5003;35306;53.458;-1.990;2022-07-25T10:16:15;4;4;
49434;PMS5003;35306;53.458;-1.990;2022-07-25T10:18:59;6;3;
49434;PMS5003;35306;53.458;-1.990;2022-07-25T10:21:26;3;3;
49434;PMS5003;35306;53.458;-1.990;2022-07-25T10:23:58;1;1;
49434;PMS5003;35306;53.458;-1.990;2022-07-25T10:26:27;4;4;
49434;PMS5003;35306;53.458;-1.990;2022-07-25T10:28:56;4;3;
49434;PMS5003;35306;53.458;-1.990;2022-07-25T10:31:24;3;3;
49434;PMS5003;35306;53.458;-1.990;2022-07-25T10:33:53;6;4;
49434;PMS5003;35306;53.458;-1.990;2022-07-25T10:36:23;4;4;
49434;PMS5003;35306;53.458;-1.990;2022-07-25T10:38:54;2;2;
49434;PMS5003;35306;53.458;-1.990;2022-07-25T10:41:23;4;4;
49434;PMS5003;35306;53.458;-1.990;2022-07-25T10:43:54;4;3;
49434;PMS5003;35306;53.458;-1.990;2022-07-25T10:46:25;4;2;
49434;PMS5003;35306;53.458;-1.990;2022-07-25T10:48:58;0;0;
49434;PMS5003;35306;53.458;-1.990;2022-07-25T10:51:27;1;1;
49434;PMS5003;35306;53.458;-1.990;2022-07-25T10:53:56;1;1;
49434;PMS5003;35306;53.458;-1.990;2022-07-25T10:56:24;2;1;
49434;PMS5003;35306;53.458;-1.990;2022-07-25T10:58:53;1;1;
49434;PMS5003;35306;53.458;-1.990;2022-07-25T11:01:22;3;3;
49434;PMS5003;35306;53.458;-1.990;2022-07-25T11:03:52;2;2;
49434;PMS5003;35306;53.458;-1.990;2022-07-25T11:06:29;4;4;
49434;PMS5003;35306;53.458;-1.990;2022-07-25T11:08:59;5;5;
49434;PMS5003;35306;53.458;-1.990;2022-07-25T11:11:35;6;5;
49434;PMS5003;35306;53.458;-1.990;2022-07-25T11:14:04;8;5;
49434;PMS5003;35306;53.458;-1.990;2022-07-25T11:16:39;4;4;
49434;PMS5003;35306;53.458;-1.990;2022-07-25T11:19:14;4;4;
49434;PMS5003;35306;53.458;-1.990;2022-07-25T11:21:45;6;6;
49434;PMS5003;35306;53.458;-1.990;2022-07-25T11:24:13;3;3;
49434;PMS5003;35306;53.458;-1.990;2022-07-25T11:26:46;2;2;
49434;PMS5003;35306;53.458;-1.990;2022-07-25T11:29:20;3;3;
49434;PMS5003;35306;53.458;-1.990;2022-07-25T11:32:12;2;2;
49434;PMS5003;35306;53.458;-1.990;2022-07-25T11:34:44;2;2;
49434;PMS5003;35306;53.458;-1.990;2022-07-25T11:37:20;5;5;
49434;PMS5003;35306;53.458;-1.990;2022-07-25T11:39:49;3;3;
49434;PMS5003;35306;53.458;-1.990;2022-07-25T11:42:18;2;2;
49434;PMS5003;35306;53.458;-1.990;2022-07-25T11:44:47;3;3;
49434;PMS5003;35306;53.458;-1.990;2022-07-25T11:47:25;2;2;
49434;PMS5003;35306;53.458;-1.990;2022-07-25T11:49:54;2;2;
49434;PMS5003;35306;53.458;-1.990;2022-07-25T11:52:23;3;2;
49434;PMS5003;35306;53.458;-1.990;2022-07-25T11:54:53;2;2;
49434;PMS5003;35306;53.458;-1.990;2022-07-25T11:57:22;1;1;
49434;PMS5003;35306;53.458;-1.990;2022-07-25T11:59:51;2;2;
49434;PMS5003;35306;53.458;-1.990;2022-07-25T12:02:21;1;1;
49434;PMS5003;35306;53.458;-1.990;2022-07-25T12:04:52;2;2;
49434;PMS5003;35306;53.458;-1.990;2022-07-25T12:07:21;2;2;
49434;PMS5003;35306;53.458;-1.990;2022-07-25T12:09:59;2;2;
49434;PMS5003;35306;53.458;-1.990;2022-07-25T12:12:26;4;3;
49434;PMS5003;35306;53.458;-1.990;2022-07-25T12:14:54;2;2;
49434;PMS5003;35306;53.458;-1.990;2022-07-25T12:17:21;5;3;
49434;PMS5003;35306;53.458;-1.990;2022-07-25T12:19:49;4;4;
49434;PMS5003;35306;53.458;-1.990;2022-07-25T12:22:17;6;6;
49434;PMS5003;35306;53.458;-1.990;2022-07-25T12:24:44;6;4;
49434;PMS5003;35306;53.458;-1.990;2022-07-25T12:27:12;4;4;
49434;PMS5003;35306;53.458;-1.990;2022-07-25T12:29:39;8;8;
49434;PMS5003;35306;53.458;-1.990;2022-07-25T12:32:07;4;4;
49434;PMS5003;35306;53.458;-1.990;2022-07-25T12:34:34;5;5;
49434;PMS5003;35306;53.458;-1.990;2022-07-25T12:37:02;3;3;
49434;PMS5003;35306;53.458;-1.990;2022-07-25T12:39:30;5;5;
49434;PMS5003;35306;53.458;-1.990;2022-07-25T12:41:57;3;3;
49434;PMS5003;35306;53.458;-1.990;2022-07-25T12:44:25;3;3;
49434;PMS5003;35306;53.458;-1.990;2022-07-25T12:46:52;6;5;
49434;PMS5003;35306;53.458;-1.990;2022-07-25T12:49:20;3;3;
49434;PMS5003;35306;53.458;-1.990;2022-07-25T12:51:47;5;5;
49434;PMS5003;35306;53.458;-1.990;2022-07-25T12:54:15;3;3;
49434;PMS5003;35306;53.458;-1.990;2022-07-25T12:56:43;4;3;
49434;PMS5003;35306;53.458;-1.990;2022-07-25T12:59:10;5;5;
49434;PMS5003;35306;53.458;-1.990;2022-07-25T13:01:38;5;5;
49434;PMS5003;35306;53.458;-1.990;2022-07-25T13:04:05;5;5;
49434;PMS5003;35306;53.458;-1.990;2022-07-25T13:06:33;2;1;
49434;PMS5003;35306;53.458;-1.990;2022-07-25T13:09:01;5;5;
49434;PMS5003;35306;53.458;-1.990;2022-07-25T13:11:32;4;4;
49434;PMS5003;35306;53.458;-1.990;2022-07-25T13:14:00;3;3;
49434;PMS5003;35306;53.458;-1.990;2022-07-25T13:16:28;5;5;
49434;PMS5003;35306;53.458;-1.990;2022-07-25T13:18:56;5;5;
49434;PMS5003;35306;53.458;-1.990;2022-07-25T13:21:23;3;2;
49434;PMS5003;35306;53.458;-1.990;2022-07-25T13:23:51;2;2;
49434;PMS5003;35306;53.458;-1.990;2022-07-25T13:26:19;4;4;
49434;PMS5003;35306;53.458;-1.990;2022-07-25T13:28:46;6;6;
49434;PMS5003;35306;53.458;-1.990;2022-07-25T13:31:19;2;2;
49434;PMS5003;35306;53.458;-1.990;2022-07-25T13:33:47;4;4;
49434;PMS5003;35306;53.458;-1.990;2022-07-25T13:36:19;3;3;
49434;PMS5003;35306;53.458;-1.990;2022-07-25T13:38:46;3;2;
49434;PMS5003;35306;53.458;-1.990;2022-07-25T13:41:15;6;4;
49434;PMS5003;35306;53.458;-1.990;2022-07-25T13:43:42;6;6;
49434;PMS5003;35306;53.458;-1.990;2022-07-25T13:46:10;4;4;
49434;PMS5003;35306;53.458;-1.990;2022-07-25T13:48:37;5;5;
49434;PMS5003;35306;53.458;-1.990;2022-07-25T13:51:05;5;5;
49434;PMS5003;35306;53.458;-1.990;2022-07-25T13:53:33;6;5;
49434;PMS5003;35306;53.458;-1.990;2022-07-25T13:56:00;4;4;
49434;PMS5003;35306;53.458;-1.990;2022-07-25T13:58:28;2;2;
49434;PMS5003;35306;53.458;-1.990;2022-07-25T14:00:55;4;4;
49434;PMS5003;35306;53.458;-1.990;2022-07-25T14:03:23;4;4;
49434;PMS5003;35306;53.458;-1.990;2022-07-25T14:05:50;6;6;
49434;PMS5003;35306;53.458;-1.990;2022-07-25T14:08:18;6;6;
49434;PMS5003;35306;53.458;-1.990;2022-07-25T14:10:46;4;2;
49434;PMS5003;35306;53.458;-1.990;2022-07-25T14:13:13;5;5;
49434;PMS5003;35306;53.458;-1.990;2022-07-25T14:15:46;4;4;
49434;PMS5003;35306;53.458;-1.990;2022-07-25T14:18:15;2;2;
49434;PMS5003;35306;53.458;-1.990;2022-07-25T14:20:42;6;6;
49434;PMS5003;35306;53.458;-1.990;2022-07-25T14:23:10;5;4;
49434;PMS5003;35306;53.458;-1.990;2022-07-25T14:25:37;4;4;
49434;PMS5003;35306;53.458;-1.990;2022-07-25T14:28:05;5;5;
49434;PMS5003;35306;53.458;-1.990;2022-07-25T14:30:32;4;4;
49434;PMS5003;35306;53.458;-1.990;2022-07-25T14:33:00;3;3;
49434;PMS5003;35306;53.458;-1.990;2022-07-25T14:35:28;1;1;
49434;PMS5003;35306;53.458;-1.990;2022-07-25T14:37:55;3;3;
49434;PMS5003;35306;53.458;-1.990;2022-07-25T14:40:23;2;1;
49434;PMS5003;35306;53.458;-1.990;2022-07-25T14:42:50;3;2;
49434;PMS5003;35306;53.458;-1.990;2022-07-25T14:45:18;2;2;
49434;PMS5003;35306;53.458;-1.990;2022-07-25T14:47:46;4;4;
49434;PMS5003;35306;53.458;-1.990;2022-07-25T14:50:13;3;2;
49434;PMS5003;35306;53.458;-1.990;2022-07-25T14:52:42;3;2;
49434;PMS5003;35306;53.458;-1.990;2022-07-25T14:55:09;3;3;
49434;PMS5003;35306;53.458;-1.990;2022-07-25T14:57:37;3;3;
49434;PMS5003;35306;53.458;-1.990;2022-07-25T15:00:04;2;2;
49434;PMS5003;35306;53.458;-1.990;2022-07-25T15:02:32;2;2;
49434;PMS5003;35306;53.458;-1.990;2022-07-25T15:05:00;2;2;
49434;PMS5003;35306;53.458;-1.990;2022-07-25T15:07:28;2;2;
49434;PMS5003;35306;53.458;-1.990;2022-07-25T15:09:55;3;3;
49434;PMS5003;35306;53.458;-1.990;2022-07-25T15:12:23;2;2;
49434;PMS5003;35306;53.458;-1.990;2022-07-25T15:14:50;2;2;
49434;PMS5003;35306;53.458;-1.990;2022-07-25T15:17:18;2;2;
49434;PMS5003;35306;53.458;-1.990;2022-07-25T15:19:45;2;2;
49434;PMS5003;35306;53.458;-1.990;2022-07-25T15:22:13;3;3;
49434;PMS5003;35306;53.458;-1.990;2022-07-25T15:24:41;1;1;
49434;PMS5003;35306;53.458;-1.990;2022-07-25T15:27:09;1;1;
49434;PMS5003;35306;53.458;-1.990;2022-07-25T15:29:37;3;3;
49434;PMS5003;35306;53.458;-1.990;2022-07-25T15:32:04;5;4;
49434;PMS5003;35306;53.458;-1.990;2022-07-25T15:34:32;2;2;
49434;PMS5003;35306;53.458;-1.990;2022-07-25T15:36:59;2;2;
49434;PMS5003;35306;53.458;-1.990;2022-07-25T15:39:27;3;3;
49434;PMS5003;35306;53.458;-1.990;2022-07-25T15:41:55;2;2;
49434;PMS5003;35306;53.458;-1.990;2022-07-25T15:44:22;3;3;
49434;PMS5003;35306;53.458;-1.990;2022-07-25T15:46:50;3;3;
49434;PMS5003;35306;53.458;-1.990;2022-07-25T15:49:17;3;3;
49434;PMS5003;35306;53.458;-1.990;2022-07-25T15:51:46;3;3;
49434;PMS5003;35306;53.458;-1.990;2022-07-25T15:54:15;5;5;
49434;PMS5003;35306;53.458;-1.990;2022-07-25T15:57:00;3;3;
49434;PMS5003;35306;53.458;-1.990;2022-07-25T15:59:32;3;3;
49434;PMS5003;35306;53.458;-1.990;2022-07-25T16:02:10;3;3;
49434;PMS5003;35306;53.458;-1.990;2022-07-25T16:04:37;4;3;
49434;PMS5003;35306;53.458;-1.990;2022-07-25T16:07:04;1;1;
49434;PMS5003;35306;53.458;-1.990;2022-07-25T16:09:32;6;4;
49434;PMS5003;35306;53.458;-1.990;2022-07-25T16:12:00;1;1;
49434;PMS5003;35306;53.458;-1.990;2022-07-25T16:14:28;3;3;
49434;PMS5003;35306;53.458;-1.990;2022-07-25T16:16:55;4;3;
49434;PMS5003;35306;53.458;-1.990;2022-07-25T16:19:22;6;6;
49434;PMS5003;35306;53.458;-1.990;2022-07-25T16:21:50;3;2;
49434;PMS5003;35306;53.458;-1.990;2022-07-25T16:24:18;6;6;
49434;PMS5003;35306;53.458;-1.990;2022-07-25T16:26:45;4;4;
49434;PMS5003;35306;53.458;-1.990;2022-07-25T16:29:13;8;6;
49434;PMS5003;35306;53.458;-1.990;2022-07-25T16:31:40;3;3;
49434;PMS5003;35306;53.458;-1.990;2022-07-25T16:34:07;6;4;
49434;PMS5003;35306;53.458;-1.990;2022-07-25T16:36:55;3;3;
49434;PMS5003;35306;53.458;-1.990;2022-07-25T16:37:06;3;3;
49434;PMS5003;35306;53.458;-1.990;2022-07-25T16:39:34;5;3;
49434;PMS5003;35306;53.458;-1.990;2022-07-25T16:42:02;4;2;
49434;PMS5003;35306;53.458;-1.990;2022-07-25T16:44:30;7;7;
49434;PMS5003;35306;53.458;-1.990;2022-07-25T16:46:57;4;4;
49434;PMS5003;35306;53.458;-1.990;2022-07-25T16:49:25;4;4;
49434;PMS5003;35306;53.458;-1.990;2022-07-25T16:51:52;6;4;
49434;PMS5003;35306;53.458;-1.990;2022-07-25T16:54:20;6;5;
49434;PMS5003;35306;53.458;-1.990;2022-07-25T16:56:47;6;6;
49434;PMS5003;35306;53.458;-1.990;2022-07-25T16:59:15;5;4;
49434;PMS5003;35306;53.458;-1.990;2022-07-25T17:01:43;3;3;
49434;PMS5003;35306;53.458;-1.990;2022-07-25T17:04:12;5;3;
49434;PMS5003;35306;53.458;-1.990;2022-07-25T17:06:40;4;3;